Time;durP1;ratioP1;P1;durP2;ratioP2;P2;SDS_P1;SDS_P2;PMS_P1;PMS_P2;Temp;Humidity;BMP_temperature;BMP_pressure;BME280_temperature;BME280_humidity;BME280_pressure;Samples;Min_cycle;Max_cycle;Signal;HPM_P1;HPM_P2
2023/04/14 00:01:31;;;;;;;8.82;2.88;;;;;;;;;;4902315;29;20051;-77
2023/04/14 00:03:57;;;;;;;6.82;1.75;;;;;;;;;;4919246;29;20035;-77
2023/04/14 00:06:23;;;;;;;12.57;1.85;;;;;;;;;;4919037;29;20028;-77
2023/04/14 00:08:49;;;;;;;8.18;2.00;;;;;;;;;;4919142;29;20502;-77
2023/04/14 00:11:15;;;;;;;8.35;2.30;;;;;;;;;;4917796;29;20123;-77
2023/04/14 00:13:41;;;;;;;6.70;1.80;;;;;;;;;;4902158;29;20028;-77
2023/04/14 00:16:07;;;;;;;10.25;1.88;;;;;;;;;;4926366;29;20043;-77
2023/04/14 00:18:33;;;;;;;7.65;2.25;;;;;;;;;;4937933;29;20436;-77
2023/04/14 00:21:01;;;;;;;16.80;3.38;;;;;;;;;;4937897;29;20522;-77
2023/04/14 00:23:27;;;;;;;7.18;1.85;;;;;;;;;;4938075;29;20055;-77
2023/04/14 00:25:53;;;;;;;5.25;2.15;;;;;;;;;;4937478;29;20171;-77
2023/04/14 00:28:19;;;;;;;7.72;2.53;;;;;;;;;;4928499;29;20507;-77
2023/04/14 00:30:45;;;;;;;2.65;1.55;;;;;;;;;;4930375;29;20028;-77
2023/04/14 00:33:11;;;;;;;5.65;1.85;;;;;;;;;;4937751;29;20043;-77
2023/04/14 00:35:37;;;;;;;7.60;2.03;;;;;;;;;;4937685;29;20043;-77
2023/04/14 00:38:03;;;;;;;7.85;2.05;;;;;;;;;;4937566;29;20051;-77
2023/04/14 00:40:29;;;;;;;7.50;2.08;;;;;;;;;;4937608;29;20427;-77
2023/04/14 00:42:55;;;;;;;13.50;2.78;;;;;;;;;;4937601;29;20075;-77
2023/04/14 00:45:21;;;;;;;7.72;1.90;;;;;;;;;;4937598;29;20383;-77
2023/04/14 00:47:49;;;;;;;8.65;2.53;;;;;;;;;;4937697;29;20116;-77
2023/04/14 00:50:16;;;;;;;9.65;2.28;;;;;;;;;;4920231;29;20020;-77
2023/04/14 00:52:51;;;;;;;7.32;2.03;;;;;;;;;;4937057;29;20481;-77
2023/04/14 00:55:18;;;;;;;5.65;2.42;;;;;;;;;;4937515;29;20083;-77
2023/04/14 00:57:45;;;;;;;7.80;2.10;;;;;;;;;;4937315;29;20024;-77
2023/04/14 01:00:12;;;;;;;7.85;2.22;;;;;;;;;;4937164;29;20039;-77
2023/04/14 01:02:38;;;;;;;9.52;2.35;;;;;;;;;;4937415;29;20164;-76
2023/04/14 01:05:05;;;;;;;11.23;2.20;;;;;;;;;;4936981;29;20114;-77
2023/04/14 01:07:31;;;;;;;6.80;2.20;;;;;;;;;;4937226;29;20028;-77
2023/04/14 01:09:57;;;;;;;9.43;1.52;;;;;;;;;;4935781;29;20419;-77
2023/04/14 01:12:23;;;;;;;10.63;2.22;;;;;;;;;;4937098;29;20038;-76
2023/04/14 01:14:52;;;;;;;11.45;2.42;;;;;;;;;;4936825;29;20036;-77
2023/04/14 01:17:28;;;;;;;8.20;2.20;;;;;;;;;;4936859;29;20372;-77
2023/04/14 01:20:00;;;;;;;6.72;2.00;;;;;;;;;;4936907;29;20079;-77
2023/04/14 01:22:29;;;;;;;7.20;2.42;;;;;;;;;;4937125;29;20110;-76
2023/04/14 01:25:14;;;;;;;10.48;2.17;;;;;;;;;;4937012;29;20066;-77
2023/04/14 01:27:48;;;;;;;12.13;2.00;;;;;;;;;;4936719;29;20038;-77
2023/04/14 01:30:16;;;;;;;12.88;2.40;;;;;;;;;;4936919;29;20500;-77
2023/04/14 01:32:45;;;;;;;10.25;3.03;;;;;;;;;;4936567;29;20094;-77
2023/04/14 01:35:16;;;;;;;10.73;2.42;;;;;;;;;;4936653;29;20482;-77
2023/04/14 01:37:47;;;;;;;10.77;2.38;;;;;;;;;;4936320;29;20024;-77
2023/04/14 01:40:15;;;;;;;11.43;2.45;;;;;;;;;;4936498;29;20039;-77
2023/04/14 01:42:45;;;;;;;5.32;2.20;;;;;;;;;;4936425;29;20348;-77
2023/04/14 01:45:15;;;;;;;11.50;2.00;;;;;;;;;;4936258;29;20024;-77
2023/04/14 01:47:41;;;;;;;10.50;2.20;;;;;;;;;;4919715;29;20028;-77
2023/04/14 01:50:09;;;;;;;10.23;2.00;;;;;;;;;;4917333;29;20066;-77
2023/04/14 01:52:36;;;;;;;7.25;2.38;;;;;;;;;;4917175;29;20032;-77
2023/04/14 01:55:04;;;;;;;7.43;2.40;;;;;;;;;;4900342;29;20032;-77
2023/04/14 01:57:38;;;;;;;7.00;2.08;;;;;;;;;;4917302;29;20020;-77
2023/04/14 02:00:06;;;;;;;10.02;2.10;;;;;;;;;;4917282;29;20480;-77
2023/04/14 02:02:32;;;;;;;9.68;2.30;;;;;;;;;;4900818;29;20075;-77
2023/04/14 02:04:59;;;;;;;5.45;1.95;;;;;;;;;;4916983;29;20416;-76
2023/04/14 02:07:26;;;;;;;7.70;2.33;;;;;;;;;;4916961;29;20103;-77
2023/04/14 02:09:53;;;;;;;10.80;2.40;;;;;;;;;;4916070;29;20356;-77
2023/04/14 02:12:19;;;;;;;9.45;2.20;;;;;;;;;;4917068;29;20460;-76
2023/04/14 02:14:49;;;;;;;9.27;2.17;;;;;;;;;;4916815;29;20032;-77
2023/04/14 02:17:16;;;;;;;6.82;2.38;;;;;;;;;;4916896;29;20036;-77
2023/04/14 02:19:43;;;;;;;11.90;2.25;;;;;;;;;;4916917;29;20029;-77
2023/04/14 02:22:09;;;;;;;7.32;2.20;;;;;;;;;;4916937;29;20039;-77
2023/04/14 02:24:35;;;;;;;6.53;2.33;;;;;;;;;;4916982;29;20031;-77
2023/04/14 02:27:02;;;;;;;9.00;2.35;;;;;;;;;;4916859;29;20028;-77
2023/04/14 02:29:28;;;;;;;8.45;2.17;;;;;;;;;;4917098;29;20180;-77
2023/04/14 02:31:57;;;;;;;10.02;2.47;;;;;;;;;;4916850;29;20020;-77
2023/04/14 02:34:25;;;;;;;11.88;2.25;;;;;;;;;;4916709;29;20032;-77
2023/04/14 02:36:56;;;;;;;6.93;2.50;;;;;;;;;;4916891;29;20029;-76
2023/04/14 02:39:36;;;;;;;8.82;2.63;;;;;;;;;;4916910;29;20032;-77
2023/04/14 02:42:09;;;;;;;5.20;2.13;;;;;;;;;;4916701;29;20111;-77
2023/04/14 02:44:38;;;;;;;9.90;2.33;;;;;;;;;;4916697;29;20048;-77
2023/04/14 02:47:06;;;;;;;8.10;2.40;;;;;;;;;;4916668;29;20028;-77
2023/04/14 02:49:46;;;;;;;19.30;2.97;;;;;;;;;;4916929;29;20080;-77
2023/04/14 02:52:13;;;;;;;4.60;2.03;;;;;;;;;;4920524;29;20032;-77
2023/04/14 02:54:41;;;;;;;8.52;2.80;;;;;;;;;;4920482;29;20043;-77
2023/04/14 02:57:07;;;;;;;6.57;2.15;;;;;;;;;;4920535;29;20033;-77
2023/04/14 02:59:49;;;;;;;11.18;2.45;;;;;;;;;;4920309;29;20084;-77
2023/04/14 03:02:16;;;;;;;6.93;2.50;;;;;;;;;;4920484;29;20028;-77
2023/04/14 03:04:42;;;;;;;9.90;2.53;;;;;;;;;;4920141;29;20087;-77
2023/04/14 03:07:09;;;;;;;10.13;2.40;;;;;;;;;;4920428;29;20039;-77
2023/04/14 03:09:35;;;;;;;5.82;1.90;;;;;;;;;;4920505;29;20028;-77
2023/04/14 03:12:02;;;;;;;7.32;2.10;;;;;;;;;;4918902;29;20107;-77
2023/04/14 03:14:30;;;;;;;11.98;2.25;;;;;;;;;;4920051;29;20028;-77
2023/04/14 03:16:57;;;;;;;9.15;2.15;;;;;;;;;;4920278;29;20032;-77
2023/04/14 03:19:23;;;;;;;9.30;2.72;;;;;;;;;;4920146;29;20050;-77
2023/04/14 03:21:50;;;;;;;9.00;2.28;;;;;;;;;;4919904;29;20035;-77
2023/04/14 03:24:23;;;;;;;11.65;2.10;;;;;;;;;;4919869;29;20025;-76
2023/04/14 03:26:51;;;;;;;10.13;2.55;;;;;;;;;;4920225;29;20416;-77
2023/04/14 03:29:20;;;;;;;7.85;3.25;;;;;;;;;;4919957;29;20020;-77
2023/04/14 03:31:47;;;;;;;8.43;3.00;;;;;;;;;;4920286;29;20372;-77
2023/04/14 03:34:14;;;;;;;11.60;4.57;;;;;;;;;;4919860;29;20150;-77
2023/04/14 03:36:42;;;;;;;10.60;3.45;;;;;;;;;;4923808;29;20085;-77
2023/04/14 03:39:13;;;;;;;7.05;2.92;;;;;;;;;;4938736;29;20499;-77
2023/04/14 03:41:41;;;;;;;7.75;3.47;;;;;;;;;;4927121;29;20486;-77
2023/04/14 03:44:16;;;;;;;12.15;4.30;;;;;;;;;;4919989;29;20111;-77
2023/04/14 03:46:42;;;;;;;19.52;7.22;;;;;;;;;;4919855;29;20467;-77
2023/04/14 03:49:10;;;;;;;15.75;6.65;;;;;;;;;;4919523;29;20028;-77
2023/04/14 03:51:37;;;;;;;16.10;7.07;;;;;;;;;;4919764;29;20020;-77
2023/04/14 03:54:05;;;;;;;19.60;7.57;;;;;;;;;;4919794;29;20024;-76
2023/04/14 03:56:32;;;;;;;18.42;7.95;;;;;;;;;;4919680;29;20103;-77
2023/04/14 03:59:00;;;;;;;16.48;6.70;;;;;;;;;;4919336;29;20024;-77
2023/04/14 04:01:26;;;;;;;13.60;5.50;;;;;;;;;;4920946;29;20380;-77
2023/04/14 04:03:57;;;;;;;11.45;3.30;;;;;;;;;;4938254;29;20028;-77
2023/04/14 04:06:24;;;;;;;9.27;3.30;;;;;;;;;;4938171;29;20485;-77
2023/04/14 04:08:51;;;;;;;8.23;2.60;;;;;;;;;;4938122;29;20103;-76
2023/04/14 04:11:24;;;;;;;8.93;2.20;;;;;;;;;;4931699;29;20050;-77
2023/04/14 04:14:03;;;;;;;6.80;2.47;;;;;;;;;;4929362;29;20063;-77
2023/04/14 04:16:29;;;;;;;9.18;2.33;;;;;;;;;;4921188;29;20024;-77
2023/04/14 04:18:56;;;;;;;10.35;2.53;;;;;;;;;;4919126;29;20052;-77
2023/04/14 04:21:22;;;;;;;9.05;2.50;;;;;;;;;;4919192;29;20665;-76
2023/04/14 04:23:51;;;;;;;7.07;2.50;;;;;;;;;;4918842;29;20020;-77
2023/04/14 04:26:18;;;;;;;7.45;2.47;;;;;;;;;;4933734;29;20035;-77
2023/04/14 04:28:44;;;;;;;10.15;3.08;;;;;;;;;;4938091;29;20103;-77
2023/04/14 04:31:10;;;;;;;7.03;2.60;;;;;;;;;;4937999;29;20036;-77
2023/04/14 04:33:36;;;;;;;8.48;2.55;;;;;;;;;;4937686;29;20032;-77
2023/04/14 04:36:05;;;;;;;11.02;2.60;;;;;;;;;;4937251;29;20092;-77
2023/04/14 04:38:31;;;;;;;10.10;2.47;;;;;;;;;;4937708;29;20028;-77
2023/04/14 04:40:57;;;;;;;7.75;2.25;;;;;;;;;;4937612;29;20376;-77
2023/04/14 04:43:23;;;;;;;10.13;3.33;;;;;;;;;;4937469;29;20467;-77
2023/04/14 04:45:58;;;;;;;12.80;2.88;;;;;;;;;;4937287;29;20035;-77
2023/04/14 04:48:24;;;;;;;13.32;3.30;;;;;;;;;;4937449;29;20412;-77
2023/04/14 04:50:50;;;;;;;7.78;2.65;;;;;;;;;;4937308;29;20111;-77
2023/04/14 04:53:16;;;;;;;9.80;2.75;;;;;;;;;;4937347;29;20055;-77
2023/04/14 04:55:42;;;;;;;11.48;2.63;;;;;;;;;;4937212;29;20092;-76
2023/04/14 04:58:09;;;;;;;8.68;2.70;;;;;;;;;;4937312;29;20039;-77
2023/04/14 05:00:35;;;;;;;7.97;2.67;;;;;;;;;;4937021;29;20066;-77
2023/04/14 05:03:01;;;;;;;10.20;2.88;;;;;;;;;;4937075;29;20047;-77
2023/04/14 05:05:27;;;;;;;7.97;2.95;;;;;;;;;;4937362;29;20123;-77
2023/04/14 05:07:53;;;;;;;6.82;2.72;;;;;;;;;;4937217;29;20106;-77
2023/04/14 05:10:19;;;;;;;7.43;2.85;;;;;;;;;;4937149;29;20034;-77
2023/04/14 05:12:45;;;;;;;10.10;3.30;;;;;;;;;;4936582;29;20487;-77
2023/04/14 05:15:11;;;;;;;7.68;2.70;;;;;;;;;;4935835;29;20498;-77
2023/04/14 05:17:42;;;;;;;13.50;3.65;;;;;;;;;;4936879;29;20020;-77
2023/04/14 05:20:08;;;;;;;11.77;3.53;;;;;;;;;;4936775;29;20055;-77
2023/04/14 05:22:34;;;;;;;5.72;2.70;;;;;;;;;;4918030;29;20028;-77
2023/04/14 05:25:00;;;;;;;5.18;2.90;;;;;;;;;;4924218;29;20040;-77
2023/04/14 05:27:26;;;;;;;8.48;2.75;;;;;;;;;;4936735;29;20027;-77
2023/04/14 05:29:52;;;;;;;10.05;3.03;;;;;;;;;;4936695;29;20358;-77
2023/04/14 05:32:20;;;;;;;4.95;2.72;;;;;;;;;;4936654;29;20032;-77
2023/04/14 05:34:46;;;;;;;4.35;2.60;;;;;;;;;;4919337;29;20024;-76
2023/04/14 05:37:12;;;;;;;9.75;3.08;;;;;;;;;;4936539;29;20103;-76
2023/04/14 05:39:38;;;;;;;10.90;4.03;;;;;;;;;;4936461;29;20032;-77
2023/04/14 05:42:04;;;;;;;12.75;3.60;;;;;;;;;;4919481;29;20155;-77
2023/04/14 05:44:30;;;;;;;5.38;2.80;;;;;;;;;;4936627;29;20067;-76
2023/04/14 05:46:56;;;;;;;9.20;3.42;;;;;;;;;;4936352;29;20553;-77
2023/04/14 05:49:22;;;;;;;8.63;3.30;;;;;;;;;;4936258;29;20028;-77
2023/04/14 05:51:48;;;;;;;11.02;3.00;;;;;;;;;;4919168;29;20046;-77
2023/04/14 05:54:14;;;;;;;7.53;3.00;;;;;;;;;;4936697;29;20025;-77
2023/04/14 05:56:47;;;;;;;9.02;3.75;;;;;;;;;;4936592;29;20027;-76
2023/04/14 05:59:15;;;;;;;8.90;3.50;;;;;;;;;;4919480;29;20382;-77
2023/04/14 06:01:41;;;;;;;11.75;3.95;;;;;;;;;;4936199;29;20024;-77
2023/04/14 06:04:16;;;;;;;7.50;2.95;;;;;;;;;;4938032;29;20102;-77
2023/04/14 06:06:42;;;;;;;7.80;3.70;;;;;;;;;;4936491;29;20115;-76
2023/04/14 06:09:08;;;;;;;10.70;3.25;;;;;;;;;;4935968;29;20131;-77
2023/04/14 06:11:34;;;;;;;6.20;2.90;;;;;;;;;;4934851;29;20137;-77
2023/04/14 06:14:01;;;;;;;13.32;2.85;;;;;;;;;;4935873;29;20119;-77
2023/04/14 06:16:27;;;;;;;10.90;3.30;;;;;;;;;;4936106;29;20032;-76
2023/04/14 06:18:53;;;;;;;10.40;3.28;;;;;;;;;;4935523;29;20042;-76
2023/04/14 06:21:19;;;;;;;10.10;3.05;;;;;;;;;;4935473;29;20024;-76
2023/04/14 06:23:45;;;;;;;7.57;3.25;;;;;;;;;;4935465;29;20067;-76
2023/04/14 06:26:11;;;;;;;7.63;3.45;;;;;;;;;;4934825;29;20067;-76
2023/04/14 06:28:37;;;;;;;11.50;3.08;;;;;;;;;;4935632;29;20537;-76
2023/04/14 06:31:03;;;;;;;9.65;3.30;;;;;;;;;;4935459;29;20106;-77
2023/04/14 06:33:29;;;;;;;10.90;3.20;;;;;;;;;;4935495;29;20036;-76
2023/04/14 06:35:55;;;;;;;7.03;3.22;;;;;;;;;;4930155;29;20028;-78
2023/04/14 06:38:21;;;;;;;8.20;3.30;;;;;;;;;;4934812;29;20035;-78
2023/04/14 06:40:49;;;;;;;8.30;3.33;;;;;;;;;;4937271;29;21511;-78
2023/04/14 06:43:16;;;;;;;8.30;2.85;;;;;;;;;;4938958;29;20723;-78
2023/04/14 06:45:42;;;;;;;8.63;3.42;;;;;;;;;;4939740;29;20038;-78
2023/04/14 06:48:10;;;;;;;8.52;3.15;;;;;;;;;;4939079;29;20106;-78
2023/04/14 06:50:36;;;;;;;5.68;2.45;;;;;;;;;;4936881;29;20036;-76
2023/04/14 06:53:03;;;;;;;6.45;2.30;;;;;;;;;;4934974;29;20054;-77
2023/04/14 06:55:29;;;;;;;6.60;2.33;;;;;;;;;;4935397;29;20024;-77
2023/04/14 06:57:55;;;;;;;6.78;1.92;;;;;;;;;;4935494;29;20040;-76
2023/04/14 07:00:21;;;;;;;10.90;2.47;;;;;;;;;;4935409;29;20034;-78
2023/04/14 07:02:47;;;;;;;6.28;2.13;;;;;;;;;;4936938;29;20069;-78
2023/04/14 07:05:14;;;;;;;5.35;2.22;;;;;;;;;;4937742;29;20042;-78
2023/04/14 07:07:40;;;;;;;8.60;2.10;;;;;;;;;;4937612;29;20036;-78
2023/04/14 07:10:06;;;;;;;3.78;1.73;;;;;;;;;;4937445;29;20031;-78
2023/04/14 07:12:33;;;;;;;7.95;2.50;;;;;;;;;;4938302;29;20051;-78
2023/04/14 07:14:59;;;;;;;6.53;2.20;;;;;;;;;;4936980;29;20063;-80
2023/04/14 07:17:25;;;;;;;6.15;1.92;;;;;;;;;;4938427;29;20032;-78
2023/04/14 07:19:51;;;;;;;6.53;1.95;;;;;;;;;;4939595;29;20024;-79
2023/04/14 07:22:21;;;;;;;6.72;2.40;;;;;;;;;;4931296;29;20111;-79
2023/04/14 07:24:55;;;;;;;6.57;2.22;;;;;;;;;;4918876;29;20032;-79
2023/04/14 07:27:22;;;;;;;5.75;2.00;;;;;;;;;;4935920;29;20107;-79
2023/04/14 07:29:48;;;;;;;5.90;1.80;;;;;;;;;;4936648;29;20039;-79
2023/04/14 07:32:14;;;;;;;6.60;2.15;;;;;;;;;;4937634;29;20031;-79
2023/04/14 07:34:42;;;;;;;3.83;1.92;;;;;;;;;;4921949;29;20029;-79
2023/04/14 07:37:08;;;;;;;10.00;2.17;;;;;;;;;;4920678;29;20028;-79
2023/04/14 07:39:34;;;;;;;5.55;2.03;;;;;;;;;;4922502;29;20083;-80
2023/04/14 07:42:00;;;;;;;7.75;2.20;;;;;;;;;;4938234;29;20031;-80
2023/04/14 07:44:26;;;;;;;6.40;2.40;;;;;;;;;;4923601;29;20032;-80
2023/04/14 07:46:52;;;;;;;5.05;2.28;;;;;;;;;;4930226;29;20042;-79
2023/04/14 07:49:18;;;;;;;6.65;2.70;;;;;;;;;;4941870;29;20063;-78
2023/04/14 07:51:44;;;;;;;5.25;2.00;;;;;;;;;;4940906;29;20027;-80
2023/04/14 07:54:10;;;;;;;5.35;2.58;;;;;;;;;;4941482;29;20403;-80
2023/04/14 07:56:36;;;;;;;6.55;2.70;;;;;;;;;;4939328;29;20467;-81
2023/04/14 07:59:02;;;;;;;8.52;2.60;;;;;;;;;;4945541;29;20038;-79
2023/04/14 08:01:28;;;;;;;6.38;2.70;;;;;;;;;;4942179;29;20108;-81
2023/04/14 08:03:54;;;;;;;5.93;2.40;;;;;;;;;;4937610;29;20047;-79
2023/04/14 08:06:28;;;;;;;7.45;2.50;;;;;;;;;;4922969;29;20475;-80
2023/04/14 08:09:00;;;;;;;6.90;2.38;;;;;;;;;;4938060;29;20649;-79
2023/04/14 08:11:26;;;;;;;7.05;3.08;;;;;;;;;;4930385;29;20028;-78
2023/04/14 08:13:52;;;;;;;8.00;2.97;;;;;;;;;;4935686;29;20051;-79
2023/04/14 08:16:19;;;;;;;5.30;2.60;;;;;;;;;;4940941;29;20427;-79
2023/04/14 08:18:45;;;;;;;6.65;2.05;;;;;;;;;;4939219;29;20035;-79
2023/04/14 08:21:11;;;;;;;6.80;2.35;;;;;;;;;;4932055;29;20036;-79
2023/04/14 08:23:44;;;;;;;7.68;2.72;;;;;;;;;;4920000;29;20032;-79
2023/04/14 08:26:11;;;;;;;8.65;3.05;;;;;;;;;;4919627;29;20435;-79
2023/04/14 08:28:37;;;;;;;5.05;2.30;;;;;;;;;;4925220;29;20028;-79
2023/04/14 08:31:03;;;;;;;6.72;2.28;;;;;;;;;;4937769;29;20031;-79
2023/04/14 08:33:29;;;;;;;4.85;2.35;;;;;;;;;;4935103;29;20032;-79
2023/04/14 08:35:54;;;;;;;10.23;3.00;;;;;;;;;;4938139;29;20066;-79
2023/04/14 08:38:20;;;;;;;8.38;2.92;;;;;;;;;;4920998;29;20035;-79
2023/04/14 08:40:47;;;;;;;9.90;3.10;;;;;;;;;;4926040;29;20032;-79
2023/04/14 08:43:13;;;;;;;8.63;2.90;;;;;;;;;;4938326;29;20047;-79
2023/04/14 08:45:39;;;;;;;8.55;3.45;;;;;;;;;;4924416;29;20028;-79
2023/04/14 08:48:05;;;;;;;7.75;2.45;;;;;;;;;;4936112;29;20055;-79
2023/04/14 08:50:33;;;;;;;8.27;2.38;;;;;;;;;;4938930;29;20071;-79
2023/04/14 08:53:02;;;;;;;9.82;3.20;;;;;;;;;;4938254;29;20087;-79
2023/04/14 08:55:29;;;;;;;11.95;3.88;;;;;;;;;;4938187;29;20422;-79
2023/04/14 08:57:55;;;;;;;7.53;2.90;;;;;;;;;;4937609;29;20482;-79
2023/04/14 09:00:22;;;;;;;10.75;3.42;;;;;;;;;;4908379;29;20042;-79
2023/04/14 09:02:48;;;;;;;9.23;3.00;;;;;;;;;;4921735;29;20028;-79
2023/04/14 09:05:14;;;;;;;10.68;2.40;;;;;;;;;;4921609;29;20241;-79
2023/04/14 09:07:41;;;;;;;9.20;2.65;;;;;;;;;;4923818;29;20024;-79
2023/04/14 09:10:09;;;;;;;7.00;2.63;;;;;;;;;;4926911;29;20034;-79
2023/04/14 09:12:36;;;;;;;6.82;2.70;;;;;;;;;;4933312;29;20050;-79
2023/04/14 09:15:02;;;;;;;6.18;2.25;;;;;;;;;;4918846;29;20084;-79
2023/04/14 09:17:28;;;;;;;6.57;2.38;;;;;;;;;;4932219;29;20110;-79
2023/04/14 09:19:54;;;;;;;7.57;2.30;;;;;;;;;;4938270;29;20502;-79
2023/04/14 09:22:20;;;;;;;11.30;2.70;;;;;;;;;;4938319;29;20466;-79
2023/04/14 09:24:47;;;;;;;6.00;2.03;;;;;;;;;;4940163;29;20035;-79
2023/04/14 09:27:13;;;;;;;6.50;2.22;;;;;;;;;;4943803;29;20028;-79
2023/04/14 09:29:40;;;;;;;6.57;2.05;;;;;;;;;;4943135;29;20106;-80
2023/04/14 09:32:07;;;;;;;6.03;2.22;;;;;;;;;;4940915;29;20445;-80
2023/04/14 09:34:33;;;;;;;6.60;1.88;;;;;;;;;;4930320;29;20074;-80
2023/04/14 09:37:01;;;;;;;5.72;2.10;;;;;;;;;;4922349;29;20100;-79
2023/04/14 09:39:27;;;;;;;8.10;2.13;;;;;;;;;;4935215;29;20039;-79
2023/04/14 09:41:53;;;;;;;5.60;1.70;;;;;;;;;;4937132;29;20164;-80
2023/04/14 09:44:20;;;;;;;4.80;1.88;;;;;;;;;;4940606;29;20519;-80
2023/04/14 09:46:59;;;;;;;6.88;2.20;;;;;;;;;;4921570;29;20126;-80
2023/04/14 09:49:25;;;;;;;4.80;1.80;;;;;;;;;;4934011;29;20031;-80
2023/04/14 09:51:54;;;;;;;6.55;1.70;;;;;;;;;;4940271;29;20075;-80
2023/04/14 09:54:27;;;;;;;3.97;1.70;;;;;;;;;;4929141;29;20020;-79
2023/04/14 09:56:54;;;;;;;6.03;1.30;;;;;;;;;;4914652;29;20024;-80
2023/04/14 09:59:37;;;;;;;2.60;0.80;;;;;;;;;;4936209;29;20021;-79
2023/04/14 10:02:04;;;;;;;5.15;1.33;;;;;;;;;;4940401;29;20394;-81
2023/04/14 10:04:30;;;;;;;2.17;0.90;;;;;;;;;;4918235;29;20079;-82
2023/04/14 10:06:57;;;;;;;5.10;1.40;;;;;;;;;;4919770;29;20064;-82
2023/04/14 10:09:26;;;;;;;4.05;1.45;;;;;;;;;;4937929;29;20102;-82
2023/04/14 10:12:21;;;;;;;2.63;0.98;;;;;;;;;;4920720;29;20079;-81
2023/04/14 10:14:47;;;;;;;3.88;1.00;;;;;;;;;;4917587;29;20095;-81
2023/04/14 10:17:14;;;;;;;4.18;1.38;;;;;;;;;;4933540;29;20032;-81
2023/04/14 10:19:40;;;;;;;4.68;1.10;;;;;;;;;;4935393;29;20098;-82
2023/04/14 10:22:06;;;;;;;4.78;1.45;;;;;;;;;;4925445;29;20036;-81
2023/04/14 10:24:32;;;;;;;4.20;1.20;;;;;;;;;;4937315;29;20083;-81
2023/04/14 10:26:58;;;;;;;4.35;1.48;;;;;;;;;;4937426;29;20099;-81
2023/04/14 10:29:24;;;;;;;5.30;1.40;;;;;;;;;;4936541;29;20028;-81
2023/04/14 10:31:53;;;;;;;3.42;1.17;;;;;;;;;;4925857;29;20125;-81
2023/04/14 10:34:21;;;;;;;2.83;1.00;;;;;;;;;;4937808;29;20019;-81
2023/04/14 10:36:47;;;;;;;5.82;1.00;;;;;;;;;;4937446;29;20622;-82
2023/04/14 10:39:19;;;;;;;3.42;1.00;;;;;;;;;;4936153;29;20105;-81
2023/04/14 10:42:04;;;;;;;5.60;1.35;;;;;;;;;;4918477;29;20050;-82
2023/04/14 10:44:33;;;;;;;4.57;1.38;;;;;;;;;;4917655;29;20032;-82
2023/04/14 10:47:03;;;;;;;3.65;1.08;;;;;;;;;;4922637;29;20051;-81
2023/04/14 10:49:37;;;;;;;4.60;1.20;;;;;;;;;;4937088;29;20027;-81
2023/04/14 10:52:12;;;;;;;6.63;1.55;;;;;;;;;;4931459;29;20016;-81
2023/04/14 10:54:54;;;;;;;7.45;1.42;;;;;;;;;;4920202;29;20032;-81
2023/04/14 10:57:24;;;;;;;3.58;1.40;;;;;;;;;;4903442;29;20037;-81
2023/04/14 10:59:54;;;;;;;2.90;1.25;;;;;;;;;;4921990;29;20027;-80
2023/04/14 11:02:32;;;;;;;3.72;1.38;;;;;;;;;;4938473;29;20410;-80
2023/04/14 11:05:16;;;;;;;4.22;1.30;;;;;;;;;;4933623;29;20030;-81
2023/04/14 11:07:51;;;;;;;4.13;1.40;;;;;;;;;;4930400;29;20035;-81
2023/04/14 11:10:16;;;;;;;4.45;1.20;;;;;;;;;;4936278;29;20626;-81
2023/04/14 11:12:43;;;;;;;3.58;1.05;;;;;;;;;;4920895;29;20039;-80
2023/04/14 11:15:09;;;;;;;3.55;1.25;;;;;;;;;;4925216;29;20059;-80
2023/04/14 11:17:43;;;;;;;3.95;1.23;;;;;;;;;;4923465;29;20034;-81
2023/04/14 11:23:18;;;;;;;2.88;1.15;;;;;;;;;;4934756;29;20103;-81
2023/04/14 11:25:44;;;;;;;3.35;1.30;;;;;;;;;;4929154;29;20547;-81
2023/04/14 11:28:10;;;;;;;6.70;1.27;;;;;;;;;;4933765;29;20036;-81
2023/04/14 11:30:36;;;;;;;2.58;1.50;;;;;;;;;;4939768;29;20031;-81
2023/04/14 11:33:02;;;;;;;4.13;1.40;;;;;;;;;;4939798;29;20032;-80
2023/04/14 11:35:30;;;;;;;2.83;0.90;;;;;;;;;;4939400;29;20443;-79
2023/04/14 11:37:56;;;;;;;3.92;1.10;;;;;;;;;;4939585;29;20030;-80
2023/04/14 11:40:23;;;;;;;3.70;1.20;;;;;;;;;;4954641;29;20034;-80
2023/04/14 11:42:53;;;;;;;3.67;1.25;;;;;;;;;;4939612;29;20043;-80
2023/04/14 11:45:19;;;;;;;5.60;1.50;;;;;;;;;;4954457;29;20095;-80
2023/04/14 11:48:00;;;;;;;4.38;1.13;;;;;;;;;;4939206;29;20019;-80
2023/04/14 11:50:26;;;;;;;3.75;1.10;;;;;;;;;;4939450;29;20099;-80
2023/04/14 11:52:54;;;;;;;6.30;1.70;;;;;;;;;;4939181;29;20031;-80
2023/04/14 11:55:22;;;;;;;5.32;1.23;;;;;;;;;;4934047;29;20468;-79
2023/04/14 11:57:48;;;;;;;4.47;1.00;;;;;;;;;;4920296;29;20032;-79
2023/04/14 12:00:14;;;;;;;2.35;0.77;;;;;;;;;;4924470;29;20102;-79
2023/04/14 12:02:55;;;;;;;4.80;1.15;;;;;;;;;;4931316;29;20056;-79
2023/04/14 12:05:29;;;;;;;4.07;1.05;;;;;;;;;;4903214;29;20046;-79
2023/04/14 12:07:58;;;;;;;3.22;1.10;;;;;;;;;;4920495;29;20028;-80
2023/04/14 12:10:25;;;;;;;4.57;0.90;;;;;;;;;;4919886;29;20016;-79
2023/04/14 12:12:57;;;;;;;4.15;1.00;;;;;;;;;;4921316;29;20039;-80
2023/04/14 12:15:23;;;;;;;5.70;1.23;;;;;;;;;;4938243;29;20491;-80
2023/04/14 12:17:49;;;;;;;5.25;1.08;;;;;;;;;;4938626;29;20087;-80
2023/04/14 12:20:16;;;;;;;3.40;0.80;;;;;;;;;;4938585;29;20106;-80
2023/04/14 12:22:42;;;;;;;2.80;1.10;;;;;;;;;;4938857;29;20024;-80
2023/04/14 12:25:11;;;;;;;2.90;1.00;;;;;;;;;;4938417;29;20042;-80
2023/04/14 12:27:37;;;;;;;3.72;1.08;;;;;;;;;;4938509;29;20390;-80
2023/04/14 12:30:04;;;;;;;3.17;1.10;;;;;;;;;;4938904;29;20023;-80
2023/04/14 12:32:38;;;;;;;3.42;0.90;;;;;;;;;;4938438;29;20023;-80
2023/04/14 12:35:05;;;;;;;2.92;0.95;;;;;;;;;;4921228;29;20032;-79
2023/04/14 12:37:31;;;;;;;3.33;0.95;;;;;;;;;;4938479;29;20099;-80
2023/04/14 12:39:58;;;;;;;3.70;1.00;;;;;;;;;;4932421;29;20060;-80
2023/04/14 12:42:25;;;;;;;5.15;1.15;;;;;;;;;;4920186;29;20471;-80
2023/04/14 12:48:44;;;;;;;3.58;1.20;;;;;;;;;;4938518;29;20086;-80
2023/04/14 12:51:11;;;;;;;6.32;1.20;;;;;;;;;;4919433;29;20092;-80
2023/04/14 12:53:38;;;;;;;5.35;1.30;;;;;;;;;;4919137;29;20452;-80
2023/04/14 12:56:06;;;;;;;3.67;1.40;;;;;;;;;;4919223;29;20071;-80
2023/04/14 12:58:39;;;;;;;2.85;1.05;;;;;;;;;;4923515;29;20020;-80
2023/04/14 13:01:06;;;;;;;2.97;1.08;;;;;;;;;;4921130;29;20450;-80
2023/04/14 13:03:44;;;;;;;3.28;1.35;;;;;;;;;;4918928;29;20031;-80
2023/04/14 13:06:11;;;;;;;3.78;1.35;;;;;;;;;;4919433;29;20039;-80
2023/04/14 13:08:38;;;;;;;3.92;1.48;;;;;;;;;;4918783;29;20035;-80
2023/04/14 13:11:04;;;;;;;3.05;1.20;;;;;;;;;;4902066;29;20024;-80
2023/04/14 13:13:30;;;;;;;4.28;1.30;;;;;;;;;;4918911;29;20040;-80
2023/04/14 13:15:56;;;;;;;5.72;1.15;;;;;;;;;;4882477;29;20500;-80
2023/04/14 13:18:22;;;;;;;5.45;1.55;;;;;;;;;;4891461;29;20365;-80
2023/04/14 13:20:53;;;;;;;3.67;1.10;;;;;;;;;;4899741;29;20362;-80
2023/04/14 13:23:19;;;;;;;5.80;1.65;;;;;;;;;;4899862;29;20080;-81
2023/04/14 13:26:00;;;;;;;4.03;1.25;;;;;;;;;;4889170;29;20104;-80
2023/04/14 13:28:36;;;;;;;3.22;1.33;;;;;;;;;;4880395;29;20053;-80
2023/04/14 13:31:02;;;;;;;3.30;1.35;;;;;;;;;;4879720;29;20480;-81
2023/04/14 13:33:28;;;;;;;5.85;0.98;;;;;;;;;;4880527;29;20060;-81
2023/04/14 13:35:55;;;;;;;3.80;1.20;;;;;;;;;;4880579;29;20083;-82
2023/04/14 13:38:21;;;;;;;6.68;1.30;;;;;;;;;;4881025;29;20053;-82
2023/04/14 13:40:47;;;;;;;3.85;1.35;;;;;;;;;;4880694;29;20025;-82
2023/04/14 13:43:14;;;;;;;3.47;1.45;;;;;;;;;;4879376;29;20029;-82
2023/04/14 13:45:40;;;;;;;4.25;1.20;;;;;;;;;;4880503;29;20477;-83
2023/04/14 13:48:06;;;;;;;3.88;1.25;;;;;;;;;;4880506;29;20033;-82
2023/04/14 13:50:32;;;;;;;4.70;1.20;;;;;;;;;;4880441;29;20044;-83
2023/04/14 13:52:58;;;;;;;2.25;1.30;;;;;;;;;;4880444;29;20037;-83
2023/04/14 13:55:24;;;;;;;3.00;1.10;;;;;;;;;;4880122;29;20097;-83
2023/04/14 13:57:50;;;;;;;2.40;0.85;;;;;;;;;;4884940;29;20024;-83
2023/04/14 14:00:16;;;;;;;3.85;1.17;;;;;;;;;;4899091;29;20028;-82
2023/04/14 14:02:42;;;;;;;3.60;1.15;;;;;;;;;;4899275;29;20043;-82
2023/04/14 14:05:16;;;;;;;4.13;0.93;;;;;;;;;;4898931;29;20024;-83
2023/04/14 14:07:42;;;;;;;4.40;1.15;;;;;;;;;;4880684;29;20551;-82
2023/04/14 14:10:16;;;;;;;3.60;1.52;;;;;;;;;;4880140;29;20076;-83
2023/04/14 14:12:42;;;;;;;3.90;1.27;;;;;;;;;;4898644;29;20028;-83
2023/04/14 14:15:11;;;;;;;3.80;1.23;;;;;;;;;;4918016;29;20074;-83
2023/04/14 14:17:37;;;;;;;2.47;1.20;;;;;;;;;;4918418;29;20044;-83
2023/04/14 14:20:03;;;;;;;2.70;1.10;;;;;;;;;;4917627;29;20028;-83
2023/04/14 14:22:29;;;;;;;4.63;1.80;;;;;;;;;;4917619;29;20028;-83
2023/04/14 14:24:56;;;;;;;4.40;1.70;;;;;;;;;;4929635;29;20051;-83
2023/04/14 14:27:25;;;;;;;5.75;1.50;;;;;;;;;;4936742;29;20137;-83
2023/04/14 14:29:54;;;;;;;2.77;0.90;;;;;;;;;;4933546;29;20475;-82
2023/04/14 14:32:20;;;;;;;3.13;1.07;;;;;;;;;;4932985;29;20367;-82
2023/04/14 14:34:46;;;;;;;5.05;1.40;;;;;;;;;;4936667;29;20278;-83
2023/04/14 14:37:13;;;;;;;3.88;1.27;;;;;;;;;;4935270;29;20039;-83
2023/04/14 14:39:39;;;;;;;1.63;1.00;;;;;;;;;;4951080;29;20036;-83
2023/04/14 14:42:06;;;;;;;4.20;1.00;;;;;;;;;;4935132;29;20119;-83
2023/04/14 14:44:32;;;;;;;4.72;1.10;;;;;;;;;;4937498;29;20035;-83
2023/04/14 14:47:09;;;;;;;5.38;1.40;;;;;;;;;;4934286;29;20032;-83
2023/04/14 14:50:02;;;;;;;3.08;1.00;;;;;;;;;;4917289;29;20044;-83
2023/04/14 14:52:29;;;;;;;3.17;1.30;;;;;;;;;;4918539;29;20589;-83